Latest Weather Observations for Gingin Airport

IDW60801

Issued at 11:03 am WST Saturday 20 July 2019 (issued every 10 minutes, with the page automatically refreshed every 10 minutes)

About weather observations | Map of weather stations | Latest weather observations for WA | Other Formats
Station Details ID: 009178 Name: GINGIN AERO Lat: -31.46 Lon: 115.86 Height: 73.0 m
Data from the previous 72 hours. | See also: Recent months at Gingin Airport
Date/Time
WST
Temp
°C
App
Temp
°C
Dew
Point
°C
Rel
Hum
%
Delta-T
°C
Wind Press
QNH
hPa
Press
MSL
hPa
Rain since
9am
mm
Dir  Spd
km/h
Gust
km/h
Spd
kts
Gust
kts
20/11:00am 16.1 11.0 7.8 58 4.2 SW 24 33 13 18 1019.7 1019.7 0.0
20/10:30am 15.1 9.4 8.3 64 3.4 SW 28 46 15 25 1019.7 1019.7 0.0
20/10:29am 15.0 9.2 8.0 63 3.5 SW 28 46 15 25 1019.7 1019.7 0.0
20/10:00am 15.6 9.8 7.9 60 3.9 SW 28 35 15 19 1019.3 1019.3 0.0
20/09:30am 15.0 12.2 8.7 66 3.2 WSW 13 24 7 13 1018.8 1018.8 0.0
20/09:00am 13.7 12.8 9.4 75 2.2 W 4 7 2 4 1018.3 1018.3 17.2
20/08:30am 12.1 11.9 9.1 82 1.5 CALM 0 0 0 0 1017.6 1017.6 17.2
20/08:00am 10.8 9.1 8.2 84 1.3 SW 7 15 4 8 1017.2 1017.2 17.2
20/07:30am 9.5 7.1 7.1 85 1.1 WSW 9 13 5 7 1016.5 1016.6 17.2
20/07:00am 8.0 5.8 5.5 84 1.1 WSW 6 9 3 5 1016.0 1016.1 17.2
20/06:30am 8.7 6.7 6.2 84 1.2 WNW 6 9 3 5 1015.6 1015.7 17.2
20/06:00am 10.1 7.8 7.3 83 1.3 E 9 15 5 8 1015.1 1015.2 17.2
20/05:30am 7.4 5.2 5.2 86 1.0 NNE 6 9 3 5 1014.6 1014.7 17.0
20/05:00am 9.3 7.2 6.6 83 1.3 W 7 9 4 5 1014.2 1014.3 17.0
20/04:30am 9.5 6.3 6.9 84 1.2 WSW 13 17 7 9 1013.8 1013.8 17.0
20/04:00am 9.9 6.3 6.6 80 1.5 WSW 15 20 8 11 1013.3 1013.3 17.0
20/03:30am 10.5 4.9 7.0 79 1.7 WSW 26 46 14 25 1013.1 1013.1 17.0
20/03:28am 10.5 4.4 6.8 78 1.8 WSW 28 46 15 25 1013.2 1013.2 17.0
20/03:00am 10.4 5.8 5.8 73 2.1 SW 19 26 10 14 1012.8 1012.8 17.0
20/02:43am 10.5 6.7 7.4 81 1.5 WSW 17 39 9 21 1012.8 1012.8 17.0
20/02:30am 10.1 7.4 7.2 82 1.4 W 11 17 6 9 1012.7 1012.7 17.0
20/02:00am 10.7 6.4 7.8 82 1.4 SW 20 35 11 19 1012.5 1012.5 17.0
20/01:30am 10.1 6.8 7.9 86 1.1 WSW 15 20 8 11 1012.0 1012.0 17.0
20/01:00am 10.0 6.0 8.1 88 0.9 WSW 19 24 10 13 1011.8 1011.8 17.0
20/12:30am 10.7 2.1 8.3 85 1.2 WSW 43 67 23 36 1012.1 1012.1 15.8
20/12:26am 10.6 2.3 7.8 83 1.4 WSW 41 67 22 36 1012.0 1012.0 15.8
20/12:21am 10.9 5.4 7.6 80 1.6 W 26 67 14 36 1011.8 1011.8 15.2
20/12:00am 10.8 7.1 8.0 83 1.4 W 17 24 9 13 1010.8 1010.8 14.4
 
Date/Time
WST
Temp
°C
App
Temp
°C
Dew
Point
°C
Rel
Hum
%
Delta-T
°C
Wind Press
QNH
hPa
Press
MSL
hPa
Rain since
9am
mm
Dir  Spd
km/h
Gust
km/h
Spd
kts
Gust
kts
19/11:30pm 11.3 3.9 8.5 83 1.4 WSW 37 56 20 30 1011.2 1011.2 14.2
19/11:26pm 11.8 6.2 8.8 82 1.5 W 28 56 15 30 1011.2 1011.2 14.2
19/11:00pm 11.7 7.7 8.9 83 1.4 WSW 20 26 11 14 1010.4 1010.4 13.0
19/10:30pm 12.0 6.0 10.1 88 1.0 WSW 32 46 17 25 1010.4 1010.4 13.0
19/10:20pm 12.0 7.5 10.2 89 0.9 WSW 24 48 13 26 1010.4 1010.4 12.8
19/10:00pm 12.4 9.4 10.6 89 0.9 W 17 26 9 14 1009.8 1009.8 12.0
19/09:30pm 12.3 8.7 10.5 89 0.9 WSW 20 28 11 15 1010.0 1010.0 10.6
19/09:03pm 12.8 6.4 9.4 80 1.7 WSW 33 59 18 32 1009.6 1009.6 10.0
19/09:00pm 13.2 6.9 9.6 79 1.8 WSW 33 50 18 27 1009.3 1009.3 9.8
19/08:30pm 13.0 5.3 10.2 83 1.5 WSW 41 54 22 29 1009.2 1009.2 9.8
19/08:08pm 13.5 8.4 10.7 83 1.5 WSW 28 54 15 29 1008.8 1008.8 9.6
19/08:00pm 13.6 8.6 11.1 85 1.3 WSW 28 41 15 22 1008.6 1008.6 9.6
19/07:46pm 13.5 7.7 11.6 88 1.0 WSW 33 52 18 28 1008.6 1008.6 9.6
19/07:30pm 13.9 7.9 12.1 89 1.0 WSW 35 50 19 27 1008.2 1008.2 9.6
19/07:00pm 14.6 9.7 12.6 88 1.1 WSW 30 54 16 29 1007.7 1007.7 9.2
19/06:58pm 14.6 10.1 12.6 88 1.1 W 28 54 15 29 1007.7 1007.7 9.2
19/06:30pm 14.5 10.9 13.2 92 0.7 W 24 35 13 19 1007.4 1007.4 8.8
19/06:00pm 13.8 10.9 12.4 91 0.8 WNW 19 26 10 14 1007.2 1007.2 8.6
19/05:33pm 13.8 10.8 12.4 91 0.8 WNW 20 54 11 29 1007.3 1007.3 8.0
19/05:30pm 14.2 11.9 12.9 92 0.7 WNW 17 22 9 12 1007.5 1007.5 6.8
19/05:10pm 14.3 9.9 12.9 91 0.8 W 28 46 15 25 1007.0 1007.0 4.6
19/05:00pm 14.4 9.3 13.0 91 0.8 W 32 48 17 26 1006.9 1006.9 4.6
19/04:30pm 15.3 10.3 13.5 89 1.0 W 32 50 17 27 1007.0 1007.0 1.8
19/04:26pm 15.7 10.3 13.9 89 1.0 WNW 35 56 19 30 1006.9 1006.9 1.6
19/04:16pm 16.8 12.8 14.1 84 1.5 NW 28 59 15 32 1006.7 1006.7 1.2
19/04:00pm 17.5 13.8 14.0 80 2.0 NW 26 44 14 24 1006.5 1006.5 0.4
19/03:30pm 16.7 12.2 13.8 83 1.6 NW 30 43 16 23 1006.9 1006.9 0.4
19/03:09pm 18.3 13.5 13.0 71 3.0 NW 30 56 16 30 1006.6 1006.6 0.2
19/03:00pm 18.7 14.5 12.5 67 3.5 NW 26 39 14 21 1006.5 1006.5 0.2
19/02:43pm 18.6 13.1 11.9 65 3.7 NW 32 50 17 27 1006.9 1006.9 0.2
19/02:30pm 17.4 13.6 13.7 79 2.1 NNW 26 44 14 24 1007.1 1007.1 0.2
19/02:12pm 18.8 14.2 12.3 66 3.6 NNW 28 50 15 27 1007.3 1007.3 0.0
19/02:00pm 18.7 14.7 12.9 69 3.3 NNW 26 41 14 22 1007.5 1007.5 0.0
19/01:30pm 18.1 14.6 13.4 74 2.7 NNW 24 43 13 23 1008.0 1008.0 0.0
19/01:00pm 18.0 13.8 13.5 75 2.6 NNW 28 39 15 21 1008.7 1008.7 0.0
19/12:30pm 17.4 13.8 13.1 76 2.4 N 24 39 13 21 1009.2 1009.2 0.0
19/12:00pm 16.1 12.4 12.7 80 1.9 NNW 24 35 13 19 1010.2 1010.2 0.0
19/11:30am 16.1 12.2 13.2 83 1.6 NNW 26 41 14 22 1010.8 1010.8 0.0
19/11:00am 15.3 12.0 12.8 85 1.4 NNW 22 33 12 18 1011.3 1011.3 0.0
19/10:30am 15.0 12.8 13.2 89 1.0 N 17 22 9 12 1011.7 1011.7 0.0
19/10:00am 14.6 12.4 13.3 92 0.7 NNW 17 22 9 12 1012.1 1012.1 0.0
19/09:30am 13.3 10.8 12.4 94 0.5 NNW 17 26 9 14 1012.4 1012.4 0.0
19/09:00am 12.5 10.6 11.7 95 0.4 NNW 13 19 7 10 1012.5 1012.5 1.4
19/08:30am 12.4 10.1 11.6 95 0.4 WNW 15 28 8 15 1012.8 1012.8 1.4
19/08:00am 11.9 10.2 11.3 96 0.3 N 11 15 6 8 1012.4 1012.4 1.4
19/07:30am 11.5 9.7 10.9 96 0.3 NNW 11 17 6 9 1012.5 1012.5 1.4
19/07:00am 11.5 9.7 10.9 96 0.3 N 11 15 6 8 1012.7 1012.7 1.2
19/06:30am 10.8 8.8 10.2 96 0.3 NNW 11 19 6 10 1012.8 1012.8 1.2
19/06:00am 10.0 7.8 9.4 96 0.3 NNW 11 13 6 7 1013.0 1013.0 0.0
19/05:30am 9.4 7.0 8.8 96 0.3 N 11 13 6 7 1012.7 1012.7 0.0
19/05:00am 8.6 6.0 7.8 95 0.4 N 11 13 6 7 1012.8 1012.8 0.0
19/04:30am 9.4 7.0 8.8 96 0.3 N 11 13 6 7 1013.0 1013.0 0.0
19/04:00am 9.1 6.6 8.3 95 0.4 N 11 11 6 6 1013.3 1013.3 0.0
19/03:30am 9.3 7.3 8.5 95 0.4 N 9 13 5 7 1013.7 1013.7 0.0
19/03:00am 8.8 6.6 8.0 95 0.4 N 9 13 5 7 1014.2 1014.3 0.0
19/02:30am 9.1 6.6 8.3 95 0.4 N 11 13 6 7 1014.4 1014.5 0.0
19/02:00am 9.4 7.0 8.5 94 0.4 N 11 13 6 7 1014.7 1014.8 0.0
19/01:30am 9.6 7.6 8.7 94 0.4 N 9 11 5 6 1015.0 1015.1 0.0
19/01:00am 8.9 7.1 8.0 94 0.4 N 7 9 4 5 1015.2 1015.3 0.0
19/12:30am 9.0 6.8 7.9 93 0.5 N 9 11 5 6 1015.6 1015.7 0.0
19/12:00am 9.5 7.8 8.4 93 0.5 N 7 9 4 5 1016.0 1016.1 0.0
 
Date/Time
WST
Temp
°C
App
Temp
°C
Dew
Point
°C
Rel
Hum
%
Delta-T
°C
Wind Press
QNH
hPa
Press
MSL
hPa
Rain since
9am
mm
Dir  Spd
km/h
Gust
km/h
Spd
kts
Gust
kts
18/11:30pm 7.8 5.3 6.6 92 0.6 N 9 9 5 5 1016.3 1016.4 0.0
18/11:00pm 6.7 4.5 5.3 91 0.6 N 6 9 3 5 1016.5 1016.6 0.0
18/10:30pm 8.7 7.3 7.3 91 0.7 N 4 6 2 3 1016.6 1016.7 0.0
18/10:00pm 8.2 6.3 6.7 90 0.7 N 6 7 3 4 1016.7 1016.8 0.0
18/09:30pm 9.1 8.5 7.5 90 0.8 CALM 0 4 0 2 1017.0 1017.1 0.0
18/09:00pm 9.4 8.5 7.7 89 0.8 NNE 2 7 1 4 1017.2 1017.2 0.0
18/08:30pm 11.2 11.1 9.6 90 0.8 CALM 0 0 0 0 1017.3 1017.3 0.0
18/08:00pm 10.8 9.3 9.1 89 0.8 NE 7 9 4 5 1017.6 1017.6 0.0
18/07:30pm 11.5 11.4 9.4 87 1.1 CALM 0 0 0 0 1017.5 1017.5 0.0
18/07:00pm 11.5 11.2 8.7 83 1.4 CALM 0 4 0 2 1017.4 1017.4 0.0
18/06:30pm 14.7 13.9 11.7 82 1.6 SW 7 7 4 4 1017.3 1017.3 0.0
18/06:00pm 15.6 14.5 11.8 78 2.1 SW 9 9 5 5 1017.2 1017.2 0.0
18/05:30pm 17.7 16.0 12.4 71 2.9 SW 13 17 7 9 1017.0 1017.1 0.0
18/05:00pm 19.3 18.8 12.8 66 3.7 SSW 7 11 4 6 1017.0 1017.1 0.0
18/04:30pm 19.3 18.7 11.8 62 4.2 W 6 7 3 4 1017.0 1017.1 0.0
18/04:00pm 20.3 19.6 11.5 57 4.9 W 6 11 3 6 1017.0 1017.1 0.0
18/03:30pm 20.4 19.9 11.9 58 4.7 WNW 6 9 3 5 1017.2 1017.2 0.0
18/03:00pm 20.3 19.5 11.8 58 4.7 WNW 7 13 4 7 1017.4 1017.4 0.0
18/02:30pm 20.0 19.3 12.0 60 4.5 W 7 13 4 7 1017.6 1017.6 0.0
18/02:00pm 19.5 18.4 11.8 61 4.3 WNW 9 13 5 7 1017.8 1017.8 0.0
18/01:30pm 19.9 19.3 12.2 61 4.3 N 7 9 4 5 1018.2 1018.2 0.0
18/01:00pm 19.3 18.1 11.6 61 4.2 NW 9 17 5 9 1018.8 1018.8 0.0
18/12:30pm 19.1 17.6 11.9 63 4.0 NW 11 19 6 10 1019.3 1019.3 0.0
18/12:00pm 18.5 17.3 11.6 64 3.8 N 9 15 5 8 1020.0 1020.0 0.0
18/11:30am 17.6 16.8 11.6 68 3.3 N 7 13 4 7 1020.6 1020.6 0.0
18/11:00am 16.6 15.2 10.9 69 3.1 N 9 13 5 7 1021.1 1021.1 0.0
18/10:30am 15.7 13.0 10.2 70 2.9 NNE 15 19 8 10 1021.2 1021.2 0.0
18/10:00am 15.6 12.9 10.2 70 2.8 N 15 19 8 10 1021.3 1021.3 0.0
18/09:30am 14.5 12.1 9.9 74 2.4 N 13 17 7 9 1021.3 1021.3 0.0
18/09:00am 12.9 11.6 11.1 89 0.9 NE 9 13 5 7 1021.2 1021.2 0.0
18/08:30am 9.9 9.6 8.7 92 0.6 CALM 0 6 0 3 1021.2 1021.2 0.0
18/08:00am 8.5 6.7 7.3 92 0.6 S 6 7 3 4 1021.2 1021.2 0.0
18/07:30am 8.0 6.1 6.8 92 0.6 SE 6 9 3 5 1020.9 1020.9 0.0
18/07:00am 7.3 4.7 6.1 92 0.5 N 9 11 5 6 1020.6 1020.6 0.0
18/06:30am 7.1 4.8 5.9 92 0.5 N 7 9 4 5 1020.6 1020.6 0.0
18/06:00am 5.9 4.3 4.5 91 0.6 NNE 2 7 1 4 1020.5 1020.5 0.0
18/05:30am 4.1 1.8 2.8 91 0.5 NNE 4 6 2 3 1020.4 1020.4 0.0
18/05:00am 3.5 1.8 2.0 90 0.6 CALM 0 0 0 0 1020.3 1020.3 0.0
18/04:30am 3.7 2.1 2.2 90 0.6 CALM 0 0 0 0 1020.4 1020.4 0.0
18/04:00am 3.6 1.9 2.1 90 0.6 CALM 0 0 0 0 1020.4 1020.4 0.0
18/03:30am 3.6 1.9 2.1 90 0.6 CALM 0 0 0 0 1020.5 1020.5 0.0
18/03:00am 4.5 2.6 3.0 90 0.6 N 2 6 1 3 1020.6 1020.6 0.0
18/02:30am 3.7 0.7 2.2 90 0.6 N 7 7 4 4 1020.6 1020.6 0.0
18/02:00am 5.6 3.0 4.2 91 0.6 N 7 9 4 5 1020.8 1020.8 0.0
18/01:30am 4.1 1.2 2.5 89 0.6 N 7 9 4 5 1020.8 1020.8 0.0
18/01:00am 4.1 2.5 2.5 89 0.6 CALM 0 0 0 0 1021.1 1021.1 0.0
18/12:30am 4.0 2.4 2.4 89 0.6 CALM 0 0 0 0 1021.3 1021.3 0.0
18/12:00am 4.4 1.7 2.8 89 0.6 N 6 7 3 4 1021.5 1021.5 0.0
 
Date/Time
WST
Temp
°C
App
Temp
°C
Dew
Point
°C
Rel
Hum
%
Delta-T
°C
Wind Press
QNH
hPa
Press
MSL
hPa
Rain since
9am
mm
Dir  Spd
km/h
Gust
km/h
Spd
kts
Gust
kts
17/11:30pm 4.0 2.4 2.2 88 0.7 CALM 0 0 0 0 1021.7 1021.7 0.0
17/11:00pm 5.0 2.4 3.2 88 0.7 N 6 9 3 5 1021.9 1021.9 0.0
17/10:30pm 5.2 2.6 3.2 87 0.8 WSW 6 7 3 4 1022.0 1022.0 0.0
17/10:00pm 5.2 2.6 3.2 87 0.8 WSW 6 9 3 5 1022.2 1022.2 0.0
17/09:30pm 6.1 4.8 3.9 86 0.9 CALM 0 0 0 0 1022.5 1022.5 0.0
17/09:00pm 6.3 5.0 4.0 85 1.0 CALM 0 0 0 0 1022.5 1022.5 0.0
17/08:30pm 6.9 5.7 4.4 84 1.1 CALM 0 0 0 0 1022.4 1022.4 0.0
17/08:00pm 7.8 6.8 5.4 85 1.1 CALM 0 0 0 0 1022.2 1022.2 0.0
17/07:30pm 9.3 8.5 6.4 82 1.3 CALM 0 0 0 0 1021.8 1021.8 0.0
17/07:00pm 9.6 8.7 6.0 78 1.7 CALM 0 0 0 0 1021.8 1021.8 0.0
17/06:30pm 11.4 10.8 7.3 76 2.0 CALM 0 0 0 0 1021.6 1021.6 0.0
17/06:00pm 12.8 11.7 7.0 68 2.8 WSW 2 6 1 3 1021.4 1021.4 0.0
17/05:30pm 15.8 13.1 9.0 64 3.5 WSW 13 15 7 8 1021.3 1021.3 0.0
17/05:00pm 18.1 14.6 8.9 55 4.8 WSW 17 20 9 11 1021.2 1021.2 0.0
17/04:30pm 19.3 14.8 7.1 45 6.2 WSW 20 24 11 13 1021.1 1021.1 0.0
17/04:00pm 20.2 15.6 5.8 39 7.1 WSW 19 28 10 15 1021.1 1021.1 0.0
17/03:30pm 21.4 16.2 3.6 31 8.6 W 20 26 11 14 1021.1 1021.1 0.0
17/03:00pm 21.9 16.2 2.6 28 9.1 WNW 22 30 12 16 1021.1 1021.1 0.0
17/02:30pm 22.2 17.3 2.3 27 9.4 WNW 17 24 9 13 1021.0 1021.0 0.0
17/02:00pm 21.9 16.2 2.6 28 9.1 NW 22 35 12 19 1021.3 1021.3 0.0
17/01:30pm 21.7 16.8 4.3 32 8.5 NNW 19 33 10 18 1021.4 1021.4 0.0
17/01:00pm 21.5 16.7 2.7 29 8.9 NW 17 30 9 16 1021.9 1021.9 0.0
17/12:30pm 21.3 17.2 4.4 33 8.2 NNW 15 22 8 12 1022.3 1022.3 0.0
17/12:00pm 20.2 15.9 5.1 37 7.4 N 17 22 9 12 1023.1 1023.1 0.0
17/11:30am 19.5 15.0 4.4 37 7.3 NNW 17 24 9 13 1023.7 1023.7 0.0

Other formats

Comma delimited format used in spreadsheet applications
http://www.bom.gov.au/fwo/IDW60801/IDW60801.95612.axf

JavaScript Object Notation format (JSON) in row-major order
http://www.bom.gov.au/fwo/IDW60801/IDW60801.95612.json

Data quality

Most of these data are generated automatically and are frequently updated. Quality checks on data are not normally performed. It is possible for incorrect values to appear. Refer to information at About Latest Weather Observations and please check the disclaimer before using these data.